Terminal Aerodrome Forecast
Issued by NWS

Home | Current Version | Previous Version | Graphics & Text | Print | Product List | Glossary On
Versions: 1 2 3 4 5 6 7 8 9 10 11 12 13 14 15 16 17 18
000
FTUS41 KCLE 291000 AAA
TAFFDY
TAF AMD
KFDY 291026Z 2910/3006 16014G22KT P6SM SCT025 OVC050
      TEMPO 2910/2913 -FZRA
     FM291300 18015G25KT 4SM -FZRA BR SCT015 OVC025
     FM291700 21012KT 2SM -RA BR SCT007 OVC015
     FM292000 27015G25KT 4SM -SN BR OVC007
     FM292300 29015G25KT P6SM OVC015=

USA.gov is the U.S. government's official web portal to all federal, state and local government web resources and services.